Terminal Aerodrome Forecast
Issued by NWS

Home | Current Version | Previous Version | Text Only | Print | Product List | Glossary On
Versions: 1 2 3 4 5 6 7 8 9 10 11 12 13 14 15 16 17 18 19 20 21
035
FTUS43 KDLH 251730
TAFHYR
TAF
KHYR 251730Z 2518/2618 20012G19KT P6SM BKN020
     FM252000 22012G19KT P6SM VCSH OVC015
     FM261000 26013G21KT P6SM -RA SCT007 OVC015=

USA.gov is the U.S. government's official web portal to all federal, state and local government web resources and services.